Sweetwater, Nevada
Current Conditions -  °F | °C
As of 5:52 AM on Friday 31 Oct 2014 (Local Time) from KBAN Reporting Station
Clear Clear  
Wind Chill:   Ceiling: Unl
Heat Index:   Visibility: NA
Dew Point: -8°   Wind: 8mph
Humidity: 30%   Direction: 240°WSW
Pressure: 29.95"   Gusts: NA
Location:  38.7596°N, 119.34°W
Report Text: KBAN 311252Z AUTO 24007KT CLR 09/M08 A2995 RMK AO2 SLP065 T00891078 $
Loading
Personal Weather Stations






























Interactive Weather Map
Tropical Storm Tracking
New forecast layout! Learn more

10-Day Weather Forecast

Advertisements
Track Severe Weather on mobile